Time;durP1;ratioP1;P1;durP2;ratioP2;P2;SDS_P1;SDS_P2;PMS_P1;PMS_P2;Temp;Humidity;BMP_temperature;BMP_pressure;BME280_temperature;BME280_humidity;BME280_pressure;Samples;Min_cycle;Max_cycle;Signal;HPM_P1;HPM_P2
2021/12/17 00:04:55;;;;;;;38.30;20.10;;;3.00;99.90;;;;;;5133448;27;20031;-70
2021/12/17 00:07:23;;;;;;;34.20;19.23;;;3.00;99.90;;;;;;5133295;27;20026;-71
2021/12/17 00:09:50;;;;;;;38.17;19.42;;;3.10;99.90;;;;;;5132993;27;20027;-70
2021/12/17 00:12:20;;;;;;;34.63;19.73;;;3.10;99.90;;;;;;5132535;27;20046;-70
2021/12/17 00:14:48;;;;;;;36.75;19.80;;;3.20;99.90;;;;;;5129249;27;20467;-72
2021/12/17 00:17:21;;;;;;;31.95;17.90;;;3.30;99.90;;;;;;5132256;27;20477;-70
2021/12/17 00:48:22;;;;;;;36.17;19.63;;;3.10;99.90;;;;;;5131103;27;20026;-70
2021/12/17 00:50:07;;;;;;;34.15;18.73;;;3.20;99.90;;;;;;5131222;27;20106;-71
2021/12/17 00:52:36;;;;;;;35.58;18.60;;;3.10;99.90;;;;;;5129867;27;20110;-70
2021/12/17 00:55:04;;;;;;;31.70;17.00;;;3.20;99.90;;;;;;5131201;27;20023;-71
2021/12/17 00:57:36;;;;;;;36.00;19.02;;;3.20;99.90;;;;;;5129445;27;20114;-70
2021/12/17 01:00:07;;;;;;;37.20;19.52;;;3.20;99.90;;;;;;5131029;27;20361;-71
2021/12/17 01:02:36;;;;;;;32.72;18.27;;;3.30;99.90;;;;;;5132126;27;20023;-71
2021/12/17 01:05:07;;;;;;;33.15;18.88;;;3.30;99.90;;;;;;5131050;27;20184;-70
2021/12/17 01:07:35;;;;;;;32.58;19.02;;;3.30;99.90;;;;;;5129966;27;20028;-71
2021/12/17 01:10:03;;;;;;;32.58;18.77;;;3.30;99.90;;;;;;5112509;27;20058;-70
2021/12/17 01:12:29;;;;;;;32.90;18.02;;;3.30;99.90;;;;;;5131281;27;20035;-70
2021/12/17 01:14:55;;;;;;;29.70;17.50;;;3.40;99.90;;;;;;5131059;27;20097;-70
2021/12/17 01:17:22;;;;;;;33.22;19.08;;;3.40;99.90;;;;;;5131450;27;20520;-70
2021/12/17 01:25:13;;;;;;;31.30;18.60;;;3.50;99.90;;;;;;5128507;27;20015;-70
2021/12/17 01:35:54;;;;;;;30.45;18.25;;;3.90;99.90;;;;;;5129143;28;20034;-70
2021/12/17 01:43:42;;;;;;;32.90;17.40;;;3.70;99.90;;;;;;5132512;28;20106;-70
2021/12/17 01:46:11;;;;;;;35.22;19.73;;;3.60;99.90;;;;;;5132362;27;20066;-70
2021/12/17 01:49:05;;;;;;;32.28;19.08;;;3.60;99.90;;;;;;5132274;28;20049;-71
2021/12/17 01:59:20;;;;;;;35.00;18.42;;;3.50;99.90;;;;;;5130557;28;20175;-70
2021/12/17 01:59:49;;;;;;;31.60;18.30;;;3.40;99.90;;;;;;5116452;28;20072;-70
2021/12/17 02:02:15;;;;;;;37.10;18.02;;;3.40;99.90;;;;;;5132081;28;20019;-70
2021/12/17 02:04:42;;;;;;;34.78;18.85;;;3.40;99.90;;;;;;5113462;28;20047;-71
2021/12/17 02:07:08;;;;;;;30.85;17.25;;;3.50;99.90;;;;;;5131364;28;20020;-71
2021/12/17 02:12:35;;;;;;;35.70;19.08;;;3.50;99.90;;;;;;5134874;27;20532;-70
2021/12/17 02:28:47;;;;;;;34.53;17.92;;;3.40;99.90;;;;;;5128030;27;20034;-70
2021/12/17 02:31:31;;;;;;;31.88;17.40;;;3.40;99.90;;;;;;5135341;27;20039;-70
2021/12/17 02:34:02;;;;;;;35.67;19.38;;;3.40;99.90;;;;;;5135006;27;20062;-70
2021/12/17 02:36:31;;;;;;;33.63;18.42;;;3.50;99.90;;;;;;5135634;27;20522;-70
2021/12/17 02:47:12;;;;;;;33.67;18.05;;;3.60;99.90;;;;;;5134945;27;20100;-70
2021/12/17 02:49:42;;;;;;;32.13;18.02;;;3.60;99.90;;;;;;5128758;27;20031;-70
2021/12/17 02:52:08;;;;;;;32.95;18.60;;;3.60;99.90;;;;;;5123871;27;20111;-70
2021/12/17 02:54:35;;;;;;;33.28;18.63;;;3.60;99.90;;;;;;5135150;27;20046;-70
2021/12/17 02:57:03;;;;;;;33.88;17.27;;;3.60;99.90;;;;;;5119831;27;20039;-70
2021/12/17 02:59:30;;;;;;;34.33;19.85;;;3.60;99.90;;;;;;5134397;27;20031;-70
2021/12/17 03:01:57;;;;;;;31.17;17.50;;;3.70;99.90;;;;;;5133955;27;20023;-70
2021/12/17 03:04:25;;;;;;;36.00;17.98;;;3.70;99.90;;;;;;5134905;27;20027;-70
2021/12/17 03:06:51;;;;;;;30.88;18.77;;;3.70;99.90;;;;;;5133973;27;20030;-70
2021/12/17 03:09:22;;;;;;;32.78;18.63;;;3.70;99.90;;;;;;5134654;27;20371;-70
2021/12/17 03:11:47;;;;;;;29.58;16.90;;;3.70;99.90;;;;;;5134220;27;20429;-72
2021/12/17 03:14:13;;;;;;;30.35;17.23;;;3.80;99.90;;;;;;5134778;27;20019;-72
2021/12/17 03:16:53;;;;;;;32.42;17.42;;;3.80;99.90;;;;;;5134708;27;20031;-75
2021/12/17 03:23:27;;;;;;;30.90;17.13;;;3.70;99.90;;;;;;5134727;27;20438;-72
2021/12/17 03:24:57;;;;;;;31.30;16.70;;;3.70;99.90;;;;;;5133980;27;20061;-72
2021/12/17 03:27:23;;;;;;;28.42;16.17;;;3.70;99.90;;;;;;5134041;27;20034;-72
2021/12/17 03:29:48;;;;;;;25.63;16.65;;;3.70;99.90;;;;;;5132878;27;20019;-72
2021/12/17 03:32:14;;;;;;;27.08;16.92;;;3.70;99.90;;;;;;5134126;27;20034;-72
2021/12/17 03:34:40;;;;;;;26.15;15.45;;;3.70;99.90;;;;;;5133885;27;20117;-74
2021/12/17 03:37:06;;;;;;;26.92;16.75;;;3.70;99.90;;;;;;5133879;27;20035;-72
2021/12/17 03:39:31;;;;;;;30.65;17.48;;;3.70;99.90;;;;;;5115658;27;20029;-72
2021/12/17 03:41:58;;;;;;;29.13;17.10;;;3.70;99.90;;;;;;5133588;27;20390;-72
2021/12/17 03:44:24;;;;;;;23.65;14.95;;;3.70;99.90;;;;;;5134105;27;20068;-72
2021/12/17 03:46:51;;;;;;;23.60;15.00;;;3.70;99.90;;;;;;5132562;27;20050;-72
2021/12/17 03:49:17;;;;;;;27.63;15.60;;;3.70;99.90;;;;;;5133697;27;20035;-72
2021/12/17 03:52:04;;;;;;;28.02;15.63;;;3.70;99.90;;;;;;5133768;27;20034;-73
2021/12/17 03:54:30;;;;;;;28.63;16.25;;;3.70;99.90;;;;;;5125495;27;20114;-73
2021/12/17 03:56:55;;;;;;;26.85;15.98;;;3.70;99.90;;;;;;5133302;27;20028;-71
2021/12/17 03:59:21;;;;;;;29.30;18.08;;;3.70;99.90;;;;;;5119375;27;20028;-70
2021/12/17 04:01:47;;;;;;;29.20;16.48;;;3.70;99.90;;;;;;5133713;27;20015;-71
2021/12/17 04:04:12;;;;;;;28.77;16.98;;;3.70;99.90;;;;;;5133768;27;20023;-71
2021/12/17 04:06:39;;;;;;;30.65;17.52;;;3.70;99.90;;;;;;5133908;27;20031;-71
2021/12/17 04:09:05;;;;;;;27.08;16.58;;;3.80;99.90;;;;;;5126897;27;20035;-71
2021/12/17 04:11:31;;;;;;;26.15;16.05;;;3.80;99.90;;;;;;5133713;27;20038;-70
2021/12/17 04:13:58;;;;;;;29.85;16.25;;;3.80;99.90;;;;;;5132903;27;20117;-70
2021/12/17 04:16:28;;;;;;;27.00;16.17;;;3.80;99.90;;;;;;5115146;27;20085;-70
2021/12/17 04:18:55;;;;;;;26.80;17.45;;;3.90;99.90;;;;;;5132311;27;20039;-70
2021/12/17 04:21:21;;;;;;;28.05;15.93;;;3.90;99.90;;;;;;5133851;27;20054;-70
2021/12/17 04:23:49;;;;;;;28.58;16.90;;;3.80;99.90;;;;;;5132690;27;20099;-71
2021/12/17 04:26:16;;;;;;;26.10;16.17;;;3.80;99.90;;;;;;5115253;27;20026;-71
2021/12/17 04:28:46;;;;;;;28.83;17.40;;;3.80;99.90;;;;;;5132092;27;20481;-71
2021/12/17 04:31:12;;;;;;;;;;;3.80;99.90;;;;;;5133705;27;20028;-71
2021/12/17 04:33:39;;;;;;;26.95;16.73;;;3.80;99.90;;;;;;5133382;27;19909;-71
2021/12/17 04:36:06;;;;;;;28.60;18.05;;;3.80;99.90;;;;;;5133082;27;20048;-71
2021/12/17 04:38:32;;;;;;;27.55;18.05;;;3.90;99.90;;;;;;5133153;27;20361;-71
2021/12/17 04:41:16;;;;;;;33.10;19.15;;;3.90;99.90;;;;;;5113961;27;20034;-70
2021/12/17 04:43:54;;;;;;;32.30;20.10;;;3.90;99.90;;;;;;5126803;27;20044;-71
2021/12/17 04:46:36;;;;;;;35.05;19.92;;;3.90;99.90;;;;;;5132506;27;20370;-71
2021/12/17 04:57:27;;;;;;;30.83;18.10;;;3.90;99.90;;;;;;5132570;27;20083;-71
2021/12/17 04:59:59;;;;;;;29.63;18.20;;;3.90;99.90;;;;;;5131275;27;20458;-71
2021/12/17 05:02:25;;;;;;;29.50;16.90;;;4.00;99.90;;;;;;5132499;27;20016;-73
2021/12/17 05:04:52;;;;;;;29.23;18.52;;;4.00;99.90;;;;;;5124520;27;20016;-71
2021/12/17 05:07:18;;;;;;;36.90;19.45;;;4.00;99.90;;;;;;5131025;27;20015;-72
2021/12/17 05:09:53;;;;;;;30.33;18.55;;;4.00;99.90;;;;;;5131745;27;20020;-73
2021/12/17 05:20:43;;;;;;;29.02;16.85;;;4.00;99.90;;;;;;5132809;27;20405;-70
2021/12/17 05:23:09;;;;;;;27.58;16.90;;;4.00;99.90;;;;;;5132781;27;20027;-70
2021/12/17 05:25:34;;;;;;;29.52;17.77;;;4.00;99.90;;;;;;5132195;27;20440;-70
2021/12/17 05:28:02;;;;;;;30.00;17.90;;;4.00;99.90;;;;;;5131355;27;20031;-71
2021/12/17 05:30:29;;;;;;;32.05;20.00;;;4.00;99.90;;;;;;5131772;27;20490;-71
2021/12/17 05:32:56;;;;;;;36.85;19.55;;;4.10;99.90;;;;;;5131312;27;20023;-71
2021/12/17 05:35:22;;;;;;;31.63;18.77;;;4.10;99.90;;;;;;5114754;28;20050;-71
2021/12/17 05:37:47;;;;;;;30.08;17.83;;;4.10;99.90;;;;;;5130161;27;20047;-71
2021/12/17 05:40:13;;;;;;;32.50;18.75;;;4.10;99.90;;;;;;5130720;28;20024;-71
2021/12/17 05:42:40;;;;;;;30.23;18.15;;;4.10;99.90;;;;;;5130781;28;20023;-71
2021/12/17 05:45:20;;;;;;;26.98;17.98;;;4.10;99.90;;;;;;5130119;27;20019;-71
2021/12/17 05:47:46;;;;;;;34.35;20.02;;;4.10;99.90;;;;;;5132229;27;20043;-72
2021/12/17 05:50:11;;;;;;;28.67;17.50;;;4.10;99.90;;;;;;5132973;27;20483;-71
2021/12/17 05:52:37;;;;;;;31.90;18.35;;;4.10;99.90;;;;;;5113980;27;20075;-71
2021/12/17 05:55:03;;;;;;;32.05;19.23;;;4.10;99.90;;;;;;5133625;27;20351;-71
2021/12/17 05:57:29;;;;;;;32.38;18.38;;;4.10;99.90;;;;;;5132877;27;20388;-71
2021/12/17 05:59:55;;;;;;;27.05;17.15;;;4.10;99.90;;;;;;5135012;27;20023;-71
2021/12/17 06:02:20;;;;;;;29.30;18.63;;;4.10;99.90;;;;;;5135035;27;20047;-72
2021/12/17 06:04:46;;;;;;;31.55;18.88;;;4.10;99.90;;;;;;5116033;27;20034;-72
2021/12/17 06:07:12;;;;;;;32.45;20.00;;;4.10;99.90;;;;;;5134948;27;20031;-72
2021/12/17 06:09:38;;;;;;;29.08;18.83;;;4.10;99.90;;;;;;5135231;27;20015;-72
2021/12/17 06:12:04;;;;;;;30.85;18.50;;;4.10;99.90;;;;;;5134377;27;20050;-71
2021/12/17 06:14:30;;;;;;;30.15;19.27;;;4.20;99.90;;;;;;5134940;27;20471;-70
2021/12/17 06:16:57;;;;;;;28.83;17.73;;;4.20;99.90;;;;;;5118178;27;20035;-70
2021/12/17 06:19:22;;;;;;;28.20;17.70;;;4.10;99.90;;;;;;5134463;27;20027;-70
2021/12/17 06:21:48;;;;;;;31.65;18.15;;;4.10;99.90;;;;;;5133794;27;20387;-71
2021/12/17 06:24:14;;;;;;;33.15;20.25;;;4.10;99.90;;;;;;5135610;27;20130;-71
2021/12/17 06:26:40;;;;;;;30.42;18.88;;;4.20;99.90;;;;;;5135489;27;20072;-73
2021/12/17 06:29:06;;;;;;;33.20;20.42;;;4.10;99.90;;;;;;5135912;27;20066;-69
2021/12/17 06:31:32;;;;;;;31.02;20.25;;;4.20;99.90;;;;;;5135758;27;20059;-76
2021/12/17 06:33:58;;;;;;;33.15;20.63;;;4.20;99.90;;;;;;5135300;27;20027;-71
2021/12/17 06:36:23;;;;;;;36.92;20.10;;;4.20;99.90;;;;;;5135299;27;20031;-71
2021/12/17 06:38:49;;;;;;;32.90;20.10;;;4.30;99.90;;;;;;5129914;27;20072;-74
2021/12/17 06:41:15;;;;;;;33.13;20.17;;;4.30;99.90;;;;;;5135578;27;20383;-68
2021/12/17 06:43:43;;;;;;;33.10;20.38;;;4.30;99.90;;;;;;5135468;27;20028;-73
2021/12/17 06:48:43;;;;;;;33.20;20.13;;;4.30;99.90;;;;;;5131633;27;20027;-72
2021/12/17 06:59:42;;;;;;;29.92;18.23;;;4.30;99.90;;;;;;5135311;27;20498;-69
2021/12/17 07:10:36;;;;;;;30.23;18.00;;;4.20;99.90;;;;;;5134988;27;20046;-69
2021/12/17 07:30:33;;;;;;;23.58;14.02;;;4.40;99.90;;;;;;5137785;27;20399;-69
2021/12/17 07:39:57;;;;;;;20.48;13.00;;;4.60;99.90;;;;;;5133077;27;20019;-69
2021/12/17 07:42:23;;;;;;;18.98;12.60;;;4.50;99.90;;;;;;5133780;27;20030;-69
2021/12/17 07:44:49;;;;;;;20.98;13.02;;;4.50;99.90;;;;;;5115062;27;20106;-69
2021/12/17 07:47:14;;;;;;;21.48;12.73;;;4.50;99.90;;;;;;5133380;27;20475;-69
2021/12/17 07:49:40;;;;;;;18.48;12.50;;;4.50;99.90;;;;;;5127302;27;20392;-70
2021/12/17 07:52:06;;;;;;;18.15;11.07;;;4.50;99.90;;;;;;5132758;27;20036;-69
2021/12/17 07:54:31;;;;;;;20.08;11.90;;;4.40;99.90;;;;;;5133352;27;20035;-69
2021/12/17 07:56:57;;;;;;;21.73;11.77;;;4.40;99.90;;;;;;5128837;27;20123;-70
2021/12/17 07:59:23;;;;;;;18.55;12.43;;;4.40;99.90;;;;;;5133118;27;20596;-69
2021/12/17 08:01:48;;;;;;;15.65;10.48;;;4.40;99.90;;;;;;5144646;27;20031;-70
2021/12/17 08:04:14;;;;;;;17.77;10.32;;;4.40;99.90;;;;;;5133735;27;20114;-69
2021/12/17 08:06:40;;;;;;;13.15;9.20;;;4.40;99.90;;;;;;5137764;27;20102;-69
2021/12/17 08:09:05;;;;;;;14.45;9.98;;;4.50;99.90;;;;;;5132763;27;20103;-69
2021/12/17 08:11:37;;;;;;;17.05;8.80;;;4.40;99.90;;;;;;5133657;27;20080;-68
2021/12/17 08:14:07;;;;;;;11.60;8.45;;;4.50;99.90;;;;;;5113932;27;20391;-69
2021/12/17 08:16:59;;;;;;;13.10;9.13;;;4.50;99.90;;;;;;5150183;27;20031;-69
2021/12/17 08:27:45;;;;;;;14.90;9.32;;;4.30;99.90;;;;;;5153983;27;20452;-69
2021/12/17 08:32:41;;;;;;;14.07;9.30;;;4.20;99.90;;;;;;5152716;27;20041;-70
2021/12/17 08:35:08;;;;;;;13.63;9.40;;;4.10;99.90;;;;;;5135971;27;20026;-68
2021/12/17 08:37:33;;;;;;;12.68;9.30;;;4.10;99.90;;;;;;5154217;27;20480;-69
2021/12/17 08:39:59;;;;;;;13.10;9.40;;;4.10;99.90;;;;;;5152734;27;20060;-69
2021/12/17 08:42:26;;;;;;;13.82;8.77;;;4.10;99.90;;;;;;5137802;27;20031;-69
2021/12/17 08:44:52;;;;;;;13.23;8.93;;;4.00;99.90;;;;;;5149232;27;20457;-68
2021/12/17 08:47:18;;;;;;;16.30;8.35;;;4.00;99.90;;;;;;5133478;27;20123;-69
2021/12/17 08:49:44;;;;;;;16.38;8.00;;;4.00;99.90;;;;;;5138708;27;20035;-69
2021/12/17 08:52:13;;;;;;;8.63;6.53;;;4.00;99.90;;;;;;5133608;27;20057;-69
2021/12/17 08:54:38;;;;;;;11.00;6.80;;;4.10;99.90;;;;;;5140354;27;20029;-69
2021/12/17 08:57:05;;;;;;;8.07;6.30;;;4.20;99.90;;;;;;5147141;27;20097;-70
2021/12/17 08:59:31;;;;;;;8.27;5.97;;;4.20;99.90;;;;;;5153609;27;20026;-69
2021/12/17 09:01:56;;;;;;;10.40;6.93;;;4.30;99.90;;;;;;5152727;27;20034;-68
2021/12/17 09:04:22;;;;;;;10.00;6.15;;;4.30;99.90;;;;;;5140430;27;20447;-68
2021/12/17 09:06:49;;;;;;;11.63;6.47;;;4.40;99.90;;;;;;5147365;27;20019;-69
2021/12/17 09:09:19;;;;;;;8.70;6.15;;;4.40;99.90;;;;;;5142581;27;20038;-69
2021/12/17 09:11:45;;;;;;;11.90;5.82;;;4.50;99.90;;;;;;5131734;27;20027;-71
2021/12/17 09:14:11;;;;;;;10.15;6.68;;;4.50;99.90;;;;;;5133197;27;20482;-68
2021/12/17 09:16:37;;;;;;;9.05;6.28;;;4.60;99.90;;;;;;5132675;27;20027;-69
2021/12/17 09:19:05;;;;;;;9.55;6.90;;;4.60;99.90;;;;;;5131656;27;20127;-68
2021/12/17 09:21:31;;;;;;;10.52;7.00;;;4.70;99.90;;;;;;5131548;27;20050;-68
2021/12/17 09:23:58;;;;;;;9.15;6.28;;;4.70;99.90;;;;;;5131243;27;20464;-68
2021/12/17 09:26:24;;;;;;;8.68;6.40;;;4.80;99.90;;;;;;5132570;27;20076;-69
2021/12/17 09:28:50;;;;;;;10.45;6.72;;;4.80;99.90;;;;;;5131971;27;20098;-70
2021/12/17 09:31:17;;;;;;;11.15;7.45;;;4.90;99.90;;;;;;5132209;27;20495;-70
2021/12/17 09:33:45;;;;;;;11.52;7.18;;;5.00;99.90;;;;;;5132428;27;20023;-70
2021/12/17 09:36:12;;;;;;;8.65;6.22;;;5.00;99.90;;;;;;5131854;28;20053;-69
2021/12/17 09:38:38;;;;;;;7.43;6.15;;;5.10;99.90;;;;;;5132052;28;20019;-70
2021/12/17 09:41:05;;;;;;;10.27;6.75;;;5.10;99.90;;;;;;5131922;28;20465;-70
2021/12/17 09:43:32;;;;;;;12.63;7.32;;;5.20;99.90;;;;;;5132492;28;20452;-70
2021/12/17 09:45:58;;;;;;;8.82;6.40;;;5.30;99.90;;;;;;5131416;27;20055;-70
2021/12/17 09:48:25;;;;;;;10.15;6.60;;;5.30;99.90;;;;;;5132401;27;20043;-69
2021/12/17 09:50:55;;;;;;;8.52;6.30;;;5.40;99.90;;;;;;5130980;28;20370;-70
2021/12/17 09:53:21;;;;;;;7.68;5.85;;;5.40;99.90;;;;;;5132392;28;20035;-71
2021/12/17 09:55:47;;;;;;;10.30;6.50;;;5.40;99.90;;;;;;5131490;27;20027;-69
2021/12/17 09:58:12;;;;;;;11.50;7.88;;;5.50;99.90;;;;;;5132300;28;20019;-69
2021/12/17 10:00:38;;;;;;;10.55;7.32;;;5.50;99.90;;;;;;5132802;27;20054;-68
2021/12/17 10:03:08;;;;;;;8.80;6.15;;;5.60;99.90;;;;;;5131817;28;20523;-69
2021/12/17 10:05:35;;;;;;;10.05;8.18;;;5.70;99.90;;;;;;5131796;28;20035;-69
2021/12/17 10:08:04;;;;;;;9.38;6.72;;;5.70;99.90;;;;;;5130817;28;20032;-69
2021/12/17 10:11:01;;;;;;;9.43;6.70;;;5.80;99.90;;;;;;5132089;28;20118;-69
2021/12/17 10:13:32;;;;;;;9.80;7.22;;;5.80;99.90;;;;;;5119993;28;20074;-69
2021/12/17 10:16:01;;;;;;;8.60;6.88;;;5.90;99.90;;;;;;5131124;27;20027;-69
2021/12/17 10:18:47;;;;;;;10.98;7.03;;;5.90;99.90;;;;;;5132361;27;20035;-72
2021/12/17 10:21:25;;;;;;;9.52;7.10;;;6.10;99.90;;;;;;5131913;28;20030;-71
2021/12/17 10:23:53;;;;;;;9.05;6.72;;;6.10;99.90;;;;;;5131685;27;20043;-71
2021/12/17 10:26:20;;;;;;;8.68;6.22;;;6.10;99.90;;;;;;5132046;28;20023;-69
2021/12/17 10:28:57;;;;;;;9.43;6.65;;;6.20;99.90;;;;;;5131873;28;20024;-72
2021/12/17 10:31:25;;;;;;;8.65;6.20;;;6.30;99.90;;;;;;5131632;27;20060;-71
2021/12/17 10:33:54;;;;;;;8.07;6.30;;;6.20;99.90;;;;;;5135660;27;20102;-71
2021/12/17 10:36:36;;;;;;;11.98;6.55;;;6.30;99.90;;;;;;5135604;27;20054;-71
2021/12/17 10:39:32;;;;;;;12.98;7.47;;;6.30;99.90;;;;;;5135403;27;20032;-71
2021/12/17 10:41:58;;;;;;;15.82;7.75;;;6.30;99.90;;;;;;5134902;27;20039;-71
2021/12/17 10:44:24;;;;;;;13.70;8.30;;;6.40;99.90;;;;;;5136158;27;20030;-71
2021/12/17 10:47:14;;;;;;;13.57;8.27;;;6.60;99.90;;;;;;5134951;27;20059;-71
2021/12/17 10:49:57;;;;;;;10.77;7.80;;;6.70;99.90;;;;;;5135800;27;20095;-71
2021/12/17 10:52:32;;;;;;;13.45;7.93;;;6.80;99.90;;;;;;5135618;27;20043;-71
2021/12/17 10:55:14;;;;;;;10.88;7.70;;;6.90;99.90;;;;;;5135214;27;20015;-71
2021/12/17 10:57:40;;;;;;;12.93;8.57;;;6.90;99.90;;;;;;5135811;27;20019;-71
2021/12/17 11:00:07;;;;;;;11.45;8.30;;;6.90;99.90;;;;;;5135793;27;20267;-71
2021/12/17 11:02:33;;;;;;;10.77;8.48;;;6.90;99.90;;;;;;5135490;27;20490;-71
2021/12/17 11:05:11;;;;;;;13.07;8.27;;;6.90;99.90;;;;;;5116754;27;20382;-71
2021/12/17 11:07:40;;;;;;;11.88;8.38;;;7.00;99.90;;;;;;5135655;27;20031;-71
2021/12/17 11:10:06;;;;;;;11.75;7.78;;;7.00;99.90;;;;;;5134561;27;20031;-71
2021/12/17 11:12:37;;;;;;;10.90;8.25;;;7.10;99.90;;;;;;5135139;27;20064;-71
2021/12/17 11:15:25;;;;;;;15.48;8.25;;;7.00;99.90;;;;;;5134302;27;20031;-72
2021/12/17 11:17:52;;;;;;;12.52;8.65;;;7.10;99.90;;;;;;5134578;27;20035;-73
2021/12/17 11:20:30;;;;;;;12.02;8.65;;;7.00;99.90;;;;;;5135239;27;20035;-71
2021/12/17 11:23:03;;;;;;;11.45;8.73;;;7.10;99.90;;;;;;5134577;27;20103;-71
2021/12/17 11:25:29;;;;;;;13.50;8.80;;;7.10;99.90;;;;;;5135151;27;20030;-71
2021/12/17 11:27:55;;;;;;;15.27;8.80;;;7.10;99.90;;;;;;5134146;27;20464;-71
2021/12/17 11:30:29;;;;;;;13.02;9.15;;;7.10;99.90;;;;;;5135038;27;20031;-71
2021/12/17 11:32:56;;;;;;;15.23;10.02;;;7.20;99.90;;;;;;5134548;27;20028;-71
2021/12/17 11:35:26;;;;;;;13.88;8.75;;;7.20;99.90;;;;;;5135072;27;20070;-71
2021/12/17 11:37:56;;;;;;;13.75;8.77;;;7.20;99.90;;;;;;5133578;27;20023;-72
2021/12/17 11:40:37;;;;;;;14.02;9.82;;;7.30;99.90;;;;;;5134877;27;20039;-71
2021/12/17 11:43:37;;;;;;;12.63;8.30;;;7.30;99.90;;;;;;5133501;27;20051;-71
2021/12/17 11:46:06;;;;;;;11.27;8.02;;;7.20;99.90;;;;;;5134004;27;20023;-71
2021/12/17 11:48:33;;;;;;;12.68;7.82;;;7.00;99.90;;;;;;5134544;27;20035;-71
2021/12/17 11:51:16;;;;;;;11.50;8.30;;;6.90;99.90;;;;;;5133839;27;20456;-72
2021/12/17 11:53:58;;;;;;;12.40;8.93;;;7.00;99.90;;;;;;5133964;27;20023;-71
2021/12/17 11:56:44;;;;;;;13.23;8.85;;;6.90;99.90;;;;;;5134483;27;20019;-71
2021/12/17 11:59:32;;;;;;;14.00;8.25;;;7.00;99.90;;;;;;5133933;27;20027;-71
2021/12/17 12:02:04;;;;;;;12.05;8.27;;;7.10;99.90;;;;;;5133599;27;20360;-71
2021/12/17 12:04:32;;;;;;;12.68;8.20;;;7.10;99.90;;;;;;5134205;27;20058;-71
2021/12/17 12:07:02;;;;;;;11.30;8.00;;;7.00;99.90;;;;;;5133622;27;20034;-71
2021/12/17 12:09:59;;;;;;;12.27;8.65;;;7.00;99.90;;;;;;5133255;27;20038;-72
2021/12/17 12:12:29;;;;;;;11.80;8.15;;;7.10;99.90;;;;;;5134062;27;20455;-71
2021/12/17 12:15:15;;;;;;;10.13;7.95;;;7.10;99.90;;;;;;5133469;27;20379;-71
2021/12/17 12:18:06;;;;;;;12.65;8.10;;;7.10;99.90;;;;;;5133412;27;20039;-71
2021/12/17 12:20:48;;;;;;;9.90;7.20;;;7.20;99.90;;;;;;5134166;27;20023;-71
2021/12/17 12:23:32;;;;;;;11.32;7.88;;;7.30;99.90;;;;;;5133644;27;20036;-71
2021/12/17 12:28:44;;;;;;;11.88;7.55;;;7.30;99.90;;;;;;5133414;27;20038;-71
2021/12/17 12:31:32;;;;;;;10.43;7.57;;;7.40;99.90;;;;;;5133360;27;20114;-71
2021/12/17 12:34:01;;;;;;;8.98;7.18;;;7.40;99.90;;;;;;5131825;27;20034;-71
2021/12/17 12:36:45;;;;;;;12.38;6.75;;;7.30;99.90;;;;;;5133949;27;20023;-71
2021/12/17 12:39:23;;;;;;;12.38;7.63;;;7.30;99.90;;;;;;5133447;27;20037;-71
2021/12/17 12:42:02;;;;;;;11.32;8.32;;;7.30;99.90;;;;;;5113630;27;20031;-69
2021/12/17 12:44:39;;;;;;;11.63;7.80;;;7.30;99.90;;;;;;5133659;27;20072;-70
2021/12/17 12:47:07;;;;;;;10.10;7.95;;;7.30;99.90;;;;;;5132676;27;20043;-71
2021/12/17 12:49:47;;;;;;;10.02;7.82;;;7.40;99.90;;;;;;5133617;27;20424;-71
2021/12/17 12:52:31;;;;;;;12.52;7.82;;;7.30;99.90;;;;;;5132578;27;20053;-70
2021/12/17 12:55:11;;;;;;;12.27;7.93;;;7.40;99.90;;;;;;5131916;27;20031;-70
2021/12/17 12:57:43;;;;;;;10.20;7.90;;;7.50;99.90;;;;;;5133286;27;20471;-70
2021/12/17 13:00:27;;;;;;;11.45;8.18;;;7.50;99.90;;;;;;5132744;27;20264;-70
2021/12/17 13:03:05;;;;;;;11.10;7.95;;;7.60;99.90;;;;;;5132265;27;20031;-70
2021/12/17 13:05:32;;;;;;;12.75;8.00;;;7.70;99.90;;;;;;5133345;27;20054;-70
2021/12/17 13:08:01;;;;;;;10.85;7.60;;;7.70;99.90;;;;;;5132658;27;20075;-70
2021/12/17 13:10:36;;;;;;;8.98;6.95;;;7.80;99.90;;;;;;5133325;27;20042;-70
2021/12/17 13:14:09;;;;;;;8.98;7.22;;;7.80;99.90;;;;;;5132313;27;20019;-70
2021/12/17 13:16:20;;;;;;;10.80;7.22;;;7.80;99.90;;;;;;5102346;28;20052;-69
2021/12/17 13:21:42;;;;;;;12.23;7.13;;;7.70;99.90;;;;;;5113989;28;20038;-70
2021/12/17 13:24:17;;;;;;;13.60;8.02;;;7.70;99.90;;;;;;5132367;27;20023;-70
2021/12/17 13:27:11;;;;;;;11.13;7.72;;;7.80;99.90;;;;;;5133173;27;20015;-70
2021/12/17 13:29:43;;;;;;;11.20;8.13;;;7.90;99.90;;;;;;5129059;27;20067;-70
2021/12/17 13:32:14;;;;;;;11.82;8.32;;;8.00;99.90;;;;;;5128495;27;20035;-71
2021/12/17 13:34:46;;;;;;;10.98;7.97;;;7.90;99.90;;;;;;5132479;28;20035;-70
2021/12/17 13:37:15;;;;;;;11.65;7.72;;;7.90;99.90;;;;;;5132147;28;20558;-69
2021/12/17 13:39:47;;;;;;;12.38;8.55;;;7.80;99.90;;;;;;5132710;28;20034;-69
2021/12/17 13:42:27;;;;;;;12.73;8.45;;;7.70;99.90;;;;;;5131761;28;20053;-70
2021/12/17 13:45:05;;;;;;;10.75;8.10;;;7.60;99.90;;;;;;5131952;27;20019;-71
2021/12/17 13:47:42;;;;;;;11.35;8.45;;;7.60;99.90;;;;;;5132980;27;20058;-70
2021/12/17 13:50:17;;;;;;;12.70;8.23;;;7.50;99.90;;;;;;5132498;27;20419;-70
2021/12/17 13:52:54;;;;;;;9.73;8.00;;;7.50;99.90;;;;;;5132348;27;20035;-69
2021/12/17 13:55:42;;;;;;;11.57;8.93;;;7.50;99.90;;;;;;5131561;28;20084;-70
2021/12/17 13:58:13;;;;;;;11.13;8.32;;;7.40;99.90;;;;;;5130610;28;20031;-72
2021/12/17 14:00:42;;;;;;;11.77;8.88;;;7.40;99.90;;;;;;5132471;28;20070;-69
2021/12/17 14:03:13;;;;;;;12.15;8.70;;;7.30;99.90;;;;;;5131165;28;20031;-70
2021/12/17 14:05:41;;;;;;;14.10;7.95;;;7.40;99.90;;;;;;5130799;27;20035;-71
2021/12/17 14:08:15;;;;;;;16.08;8.00;;;7.40;99.90;;;;;;5133553;27;20039;-69
2021/12/17 14:10:41;;;;;;;10.68;7.70;;;7.40;99.90;;;;;;5132000;27;20460;-70
2021/12/17 14:13:17;;;;;;;12.77;7.88;;;7.70;99.90;;;;;;5135208;27;20031;-70
2021/12/17 14:15:44;;;;;;;11.98;8.15;;;7.70;99.90;;;;;;5136771;27;20019;-71
2021/12/17 14:18:14;;;;;;;12.98;8.85;;;7.70;99.90;;;;;;5135151;27;20353;-69
2021/12/17 14:20:46;;;;;;;13.45;8.70;;;7.70;99.90;;;;;;5136166;27;20035;-69
2021/12/17 14:23:20;;;;;;;13.05;9.27;;;7.70;99.90;;;;;;5135293;27;20237;-68
2021/12/17 14:25:57;;;;;;;12.05;8.38;;;7.60;99.90;;;;;;5125957;27;20028;-68
2021/12/17 14:28:31;;;;;;;13.05;8.07;;;7.60;99.90;;;;;;5130664;27;20027;-69
2021/12/17 14:31:06;;;;;;;11.75;8.27;;;7.60;99.90;;;;;;5134979;27;20376;-69
2021/12/17 14:33:37;;;;;;;13.63;9.38;;;7.60;99.90;;;;;;5135135;27;20488;-69
2021/12/17 14:36:05;;;;;;;12.65;8.95;;;7.60;99.90;;;;;;5135115;27;20084;-70
2021/12/17 14:38:46;;;;;;;12.82;8.82;;;7.50;99.90;;;;;;5135955;27;20023;-69
2021/12/17 14:41:13;;;;;;;;;;;7.40;99.90;;;;;;5135981;27;20055;-69
2021/12/17 14:43:45;;;;;;;14.35;10.07;;;7.40;99.90;;;;;;5135377;27;19994;-70
2021/12/17 14:49:00;;;;;;;12.68;9.50;;;7.30;99.90;;;;;;5136120;27;20044;-71
2021/12/17 14:57:25;;;;;;;14.50;9.93;;;7.20;99.90;;;;;;5134223;27;20030;-71
2021/12/17 15:02:48;;;;;;;15.82;10.40;;;7.00;99.90;;;;;;5134242;27;20027;-70
2021/12/17 15:05:07;;;;;;;16.83;10.80;;;6.90;99.90;;;;;;5133226;27;20095;-72
2021/12/17 15:07:33;;;;;;;16.63;10.98;;;6.90;99.90;;;;;;5114780;28;20024;-73
2021/12/17 15:09:59;;;;;;;16.13;10.30;;;6.80;99.90;;;;;;5118893;27;20034;-72
2021/12/17 15:15:02;;;;;;;17.17;11.13;;;6.70;99.90;;;;;;5134225;27;20456;-73
2021/12/17 15:17:28;;;;;;;14.80;11.23;;;6.70;99.90;;;;;;5135306;27;20027;-72
2021/12/17 15:19:53;;;;;;;17.55;11.23;;;6.70;99.90;;;;;;5134957;27;20027;-70
2021/12/17 15:22:19;;;;;;;14.88;11.35;;;6.60;99.90;;;;;;5134647;27;20031;-70
2021/12/17 15:24:45;;;;;;;19.48;11.23;;;6.60;99.90;;;;;;5134738;27;20072;-70
2021/12/17 15:27:13;;;;;;;16.10;12.15;;;6.60;99.90;;;;;;5133671;27;20092;-69
2021/12/17 15:29:39;;;;;;;15.25;11.40;;;6.40;99.90;;;;;;5134604;27;20019;-72
2021/12/17 15:32:05;;;;;;;16.02;12.05;;;6.30;99.90;;;;;;5133817;27;20100;-71
2021/12/17 15:34:31;;;;;;;18.55;12.48;;;6.30;99.90;;;;;;5134596;27;20031;-75
2021/12/17 15:36:58;;;;;;;16.35;12.00;;;6.40;99.90;;;;;;5133666;27;20045;-74
2021/12/17 15:39:26;;;;;;;19.20;13.45;;;6.30;99.90;;;;;;5134526;27;20027;-75
2021/12/17 15:41:52;;;;;;;16.58;12.30;;;6.30;99.90;;;;;;5134109;27;20393;-71
2021/12/17 15:44:17;;;;;;;18.25;12.45;;;6.30;99.90;;;;;;5133131;27;20041;-73
2021/12/17 15:46:43;;;;;;;16.15;12.20;;;6.40;99.90;;;;;;5133569;27;20130;-72
2021/12/17 15:49:09;;;;;;;19.02;13.15;;;6.30;99.90;;;;;;5133545;27;20474;-72
2021/12/17 15:51:36;;;;;;;16.25;11.70;;;6.30;99.90;;;;;;5121709;27;20364;-72
2021/12/17 15:54:03;;;;;;;17.17;12.18;;;6.30;99.90;;;;;;5133056;27;20030;-73